createdAt,value
2017-02-12T00:00:06.579Z,0
2017-02-12T00:01:06.555Z,0
2017-02-12T00:02:06.573Z,0
2017-02-12T00:03:06.544Z,0
2017-02-12T00:04:06.522Z,0
2017-02-12T00:05:06.488Z,0
2017-02-12T00:06:06.460Z,0
2017-02-12T00:07:05.684Z,0
2017-02-12T00:08:06.453Z,0
2017-02-12T00:09:06.477Z,0
2017-02-12T00:10:06.400Z,0
2017-02-12T00:11:06.403Z,0
2017-02-12T00:12:05.969Z,0
2017-02-12T00:13:06.418Z,0
2017-02-12T00:14:06.346Z,0
2017-02-12T00:15:06.353Z,0
2017-02-12T00:16:06.306Z,0
2017-02-12T00:17:06.308Z,0
2017-02-12T00:18:06.265Z,0
2017-02-12T00:19:06.253Z,0
2017-02-12T00:20:06.236Z,0
2017-02-12T00:21:06.226Z,0
2017-02-12T00:22:06.196Z,0
2017-02-12T00:23:06.109Z,0
2017-02-12T00:24:06.172Z,0
2017-02-12T00:25:06.175Z,0
2017-02-12T00:26:06.130Z,0
2017-02-12T00:27:06.136Z,0
2017-02-12T00:28:06.105Z,0
2017-02-12T00:29:06.099Z,0
2017-02-12T00:30:06.064Z,0
2017-02-12T00:31:06.067Z,0
2017-02-12T00:32:06.057Z,0
2017-02-12T00:33:06.011Z,0
2017-02-12T00:34:06.040Z,0
2017-02-12T00:35:05.609Z,0
2017-02-12T00:36:06.020Z,0
2017-02-12T00:37:05.553Z,0
2017-02-12T00:38:05.950Z,0
2017-02-12T00:39:05.938Z,0
2017-02-12T00:40:05.519Z,0
2017-02-12T00:41:05.902Z,0
2017-02-12T00:42:05.859Z,0
2017-02-12T00:43:05.859Z,0
2017-02-12T00:44:05.855Z,0
2017-02-12T00:45:05.830Z,0
2017-02-12T00:46:05.844Z,0
2017-02-12T00:47:05.387Z,0
2017-02-12T00:48:05.789Z,0
2017-02-12T00:49:05.772Z,0
2017-02-12T00:50:05.762Z,0
2017-02-12T00:51:05.730Z,0
2017-02-12T00:52:05.730Z,0
2017-02-12T00:53:05.682Z,0
2017-02-12T00:54:05.676Z,0
2017-02-12T00:55:05.680Z,0
2017-02-12T00:56:05.642Z,0
2017-02-12T00:57:05.251Z,0
2017-02-12T00:58:05.611Z,0
2017-02-12T00:59:05.613Z,0
2017-02-12T01:00:05.169Z,0
2017-02-12T01:01:05.571Z,0
2017-02-12T01:02:05.540Z,0
2017-02-12T01:03:05.551Z,0
2017-02-12T01:04:05.508Z,0
2017-02-12T01:05:05.109Z,0
2017-02-12T01:06:05.512Z,0
2017-02-12T01:07:05.468Z,0
2017-02-12T01:08:05.458Z,0
2017-02-12T01:09:05.439Z,0
2017-02-12T01:10:05.004Z,0
2017-02-12T01:11:05.397Z,0
2017-02-12T01:12:05.000Z,0
2017-02-12T01:13:05.389Z,0
2017-02-12T01:14:05.339Z,0
2017-02-12T01:15:05.346Z,0
2017-02-12T01:16:05.309Z,0
2017-02-12T01:17:05.341Z,0
2017-02-12T01:18:05.286Z,0
2017-02-12T01:19:05.293Z,0
2017-02-12T01:20:05.253Z,0
2017-02-12T01:21:05.237Z,0
2017-02-12T01:22:05.195Z,0
2017-02-12T01:23:05.201Z,0
2017-02-12T01:24:05.178Z,0
2017-02-12T01:25:04.771Z,0
2017-02-12T01:26:05.168Z,0
2017-02-12T01:27:05.139Z,0
2017-02-12T01:28:05.111Z,0
2017-02-12T01:29:05.090Z,0
2017-02-12T01:30:05.102Z,0
2017-02-12T01:31:05.073Z,0
2017-02-12T01:32:05.067Z,0
2017-02-12T01:33:05.019Z,0
2017-02-12T01:34:05.025Z,0
2017-02-12T01:35:05.052Z,0
2017-02-12T01:36:05.024Z,0
2017-02-12T01:37:04.984Z,0
2017-02-12T01:38:04.927Z,0
2017-02-12T01:39:04.933Z,0
2017-02-12T01:40:04.930Z,0
2017-02-12T01:41:04.905Z,0
2017-02-12T01:42:04.883Z,0
2017-02-12T01:43:04.460Z,0
2017-02-12T01:44:04.854Z,0
2017-02-12T01:45:04.820Z,0
2017-02-12T01:46:04.827Z,0
2017-02-12T01:47:04.772Z,0
2017-02-12T01:48:04.797Z,0
2017-02-12T01:49:04.747Z,0
2017-02-12T01:50:04.747Z,0
2017-02-12T01:51:04.726Z,0
2017-02-12T01:52:04.729Z,0
2017-02-12T01:53:04.687Z,0
2017-02-12T01:54:04.696Z,0
2017-02-12T01:55:04.675Z,0
2017-02-12T01:56:04.642Z,0
2017-02-12T01:57:04.620Z,0
2017-02-12T01:58:04.610Z,0
2017-02-12T01:59:04.595Z,0
2017-02-12T02:00:04.194Z,0
2017-02-12T02:01:04.562Z,0
2017-02-12T02:02:04.554Z,0
2017-02-12T02:03:04.527Z,0
2017-02-12T02:04:04.523Z,0
2017-02-12T02:05:04.493Z,0
2017-02-12T02:06:04.496Z,0
2017-02-12T02:07:04.100Z,0
2017-02-12T02:08:04.457Z,0
2017-02-12T02:09:04.417Z,0
2017-02-12T02:10:04.423Z,0
2017-02-12T02:11:04.401Z,0
2017-02-12T02:12:04.008Z,0
2017-02-12T02:13:04.363Z,0
2017-02-12T02:14:04.336Z,0
2017-02-12T02:15:04.344Z,0
2017-02-12T02:16:04.312Z,0
2017-02-12T02:17:04.306Z,0
2017-02-12T02:18:04.285Z,0
2017-02-12T02:19:04.271Z,0
2017-02-12T02:20:04.239Z,0
2017-02-12T02:21:04.246Z,0
2017-02-12T02:22:04.216Z,0
2017-02-12T02:23:04.210Z,0
2017-02-12T02:24:04.197Z,0
2017-02-12T02:25:04.175Z,0
2017-02-12T02:26:04.176Z,0
2017-02-12T02:27:04.135Z,0
2017-02-12T02:28:04.128Z,0
2017-02-12T02:29:04.096Z,0
2017-02-12T02:30:04.075Z,0
2017-02-12T02:31:04.083Z,0
2017-02-12T02:32:04.047Z,0
2017-02-12T02:33:04.055Z,0
2017-02-12T02:34:04.006Z,0
2017-02-12T02:35:04.013Z,0
2017-02-12T02:36:03.982Z,0
2017-02-12T02:37:03.974Z,0
2017-02-12T02:38:03.967Z,0
2017-02-12T02:39:03.955Z,0
2017-02-12T02:40:03.924Z,0
2017-02-12T02:41:03.899Z,0
2017-02-12T02:42:03.868Z,0
2017-02-12T02:43:03.871Z,0
2017-02-12T02:44:03.841Z,0
2017-02-12T02:45:03.846Z,0
2017-02-12T02:46:03.828Z,0
2017-02-12T02:47:03.797Z,0
2017-02-12T02:48:03.792Z,0
2017-02-12T02:49:03.759Z,0
2017-02-12T02:50:03.762Z,0
2017-02-12T02:51:03.722Z,0
2017-02-12T02:52:03.722Z,0
2017-02-12T02:53:03.703Z,0
2017-02-12T02:54:03.680Z,0
2017-02-12T02:55:03.683Z,0
2017-02-12T02:56:03.659Z,0
2017-02-12T02:57:03.647Z,0
2017-02-12T02:58:03.596Z,0
2017-02-12T02:59:03.606Z,0
2017-02-12T03:00:03.588Z,0
2017-02-12T03:01:03.572Z,0
2017-02-12T03:02:03.571Z,0
2017-02-12T03:03:03.540Z,0
2017-02-12T03:04:03.523Z,0
2017-02-12T03:05:03.101Z,0
2017-02-12T03:06:03.507Z,0
2017-02-12T03:07:03.073Z,0
2017-02-12T03:08:03.475Z,0
2017-02-12T03:09:03.443Z,0
2017-02-12T03:10:03.450Z,0
2017-02-12T03:11:03.393Z,0
2017-02-12T03:12:03.377Z,0
2017-02-12T03:13:03.403Z,0
2017-02-12T03:14:03.372Z,0
2017-02-12T03:15:03.344Z,0
2017-02-12T03:16:03.351Z,0
2017-02-12T03:17:03.291Z,0
2017-02-12T03:18:03.334Z,0
2017-02-12T03:19:03.274Z,0
2017-02-12T03:20:03.291Z,0
2017-02-12T03:21:03.231Z,0
2017-02-12T03:22:03.245Z,0
2017-02-12T03:23:03.197Z,0
2017-02-12T03:24:03.199Z,0
2017-02-12T03:25:03.152Z,0
2017-02-12T03:26:03.166Z,0
2017-02-12T03:27:03.118Z,0
2017-02-12T03:28:03.120Z,0
2017-02-12T03:29:03.112Z,0
2017-02-12T03:30:03.097Z,0
2017-02-12T03:31:03.080Z,0
2017-02-12T03:32:03.049Z,0
2017-02-12T03:33:03.038Z,0
2017-02-12T03:34:02.999Z,0
2017-02-12T03:35:03.022Z,0
2017-02-12T03:36:02.989Z,0
2017-02-12T03:37:03.054Z,0
2017-02-12T03:38:02.947Z,0
2017-02-12T03:39:02.937Z,0
2017-02-12T03:40:02.907Z,0
2017-02-12T03:41:02.912Z,0
2017-02-12T03:42:02.885Z,0
2017-02-12T03:43:02.878Z,0
2017-02-12T03:44:02.469Z,0
2017-02-12T03:45:02.849Z,0
2017-02-12T03:46:02.835Z,0
2017-02-12T03:47:02.817Z,0
2017-02-12T03:48:02.795Z,0
2017-02-12T03:49:02.781Z,0
2017-02-12T03:50:02.745Z,0
2017-02-12T03:51:02.353Z,0
2017-02-12T03:52:02.740Z,0
2017-02-12T03:53:02.735Z,0
2017-02-12T03:54:02.688Z,0
2017-02-12T03:55:02.687Z,0
2017-02-12T03:56:02.664Z,0
2017-02-12T03:57:02.647Z,0
2017-02-12T03:58:02.627Z,0
2017-02-12T03:59:02.592Z,0
2017-02-12T04:00:02.608Z,0
2017-02-12T04:01:02.566Z,0
2017-02-12T04:02:02.583Z,0
2017-02-12T04:03:02.550Z,0
2017-02-12T04:04:02.513Z,0
2017-02-12T04:05:02.509Z,0
2017-02-12T04:06:02.486Z,0
2017-02-12T04:07:02.082Z,0
2017-02-12T04:08:02.451Z,0
2017-02-12T04:09:02.424Z,0
2017-02-12T04:10:02.434Z,0
2017-02-12T04:11:02.409Z,0
2017-02-12T04:12:02.020Z,0
2017-02-12T04:13:02.359Z,0
2017-02-12T04:14:02.377Z,0
2017-02-12T04:15:02.319Z,0
2017-02-12T04:16:02.338Z,0
2017-02-12T04:17:02.292Z,0
2017-02-12T04:18:02.309Z,0
2017-02-12T04:19:02.275Z,0
2017-02-12T04:20:02.296Z,0
2017-02-12T04:21:02.239Z,0
2017-02-12T04:22:02.210Z,0
2017-02-12T04:23:02.217Z,0
2017-02-12T04:24:02.193Z,0
2017-02-12T04:25:02.183Z,0
2017-02-12T04:26:02.160Z,0
2017-02-12T04:27:02.154Z,0
2017-02-12T04:28:02.118Z,0
2017-02-12T04:29:02.128Z,0
2017-02-12T04:30:02.100Z,0
2017-02-12T04:31:02.078Z,0
2017-02-12T04:32:02.046Z,0
2017-02-12T04:33:02.040Z,0
2017-02-12T04:34:02.010Z,0
2017-02-12T04:35:02.025Z,0
2017-02-12T04:36:02.007Z,0
2017-02-12T04:37:01.963Z,0
2017-02-12T04:38:01.942Z,0
2017-02-12T04:39:01.963Z,0
2017-02-12T04:40:01.934Z,0
2017-02-12T04:41:01.918Z,0
2017-02-12T04:42:01.898Z,0
2017-02-12T04:43:01.913Z,0
2017-02-12T04:44:01.839Z,0
2017-02-12T04:45:01.856Z,0
2017-02-12T04:46:01.824Z,0
2017-02-12T04:47:01.832Z,0
2017-02-12T04:48:01.792Z,0
2017-02-12T04:49:01.402Z,0
2017-02-12T04:50:01.746Z,0
2017-02-12T04:51:01.744Z,0
2017-02-12T04:52:01.723Z,0
2017-02-12T04:53:01.721Z,0
2017-02-12T04:54:01.707Z,0
2017-02-12T04:55:01.668Z,0
2017-02-12T04:56:01.664Z,0
2017-02-12T04:57:01.251Z,0
2017-02-12T04:58:01.640Z,0
2017-02-12T04:59:01.613Z,0
2017-02-12T05:00:01.589Z,0
2017-02-12T05:01:01.581Z,0
2017-02-12T05:02:01.559Z,0
2017-02-12T05:03:01.557Z,0
2017-02-12T05:04:01.535Z,0
2017-02-12T05:05:01.520Z,0
2017-02-12T05:06:01.476Z,0
2017-02-12T05:07:01.087Z,0
2017-02-12T05:08:01.475Z,0
2017-02-12T05:09:01.458Z,0
2017-02-12T05:10:01.455Z,0
2017-02-12T05:11:01.400Z,0
2017-02-12T05:12:01.020Z,0
2017-02-12T05:13:01.383Z,0
2017-02-12T05:14:01.379Z,0
2017-02-12T05:15:01.352Z,0
2017-02-12T05:16:01.349Z,0
2017-02-12T05:17:01.308Z,0
2017-02-12T05:18:01.324Z,0
2017-02-12T05:19:01.277Z,0
2017-02-12T05:20:01.272Z,0
2017-02-12T05:21:01.259Z,0
2017-02-12T05:22:01.243Z,0
2017-02-12T05:23:01.228Z,0
2017-02-12T05:24:01.220Z,0
2017-02-12T05:25:01.174Z,0
2017-02-12T05:26:01.175Z,0
2017-02-12T05:27:01.152Z,0
2017-02-12T05:28:01.132Z,0
2017-02-12T05:29:01.082Z,0
2017-02-12T05:30:01.113Z,0
2017-02-12T05:31:01.078Z,0
2017-02-12T05:32:01.084Z,0
2017-02-12T05:33:01.045Z,0
2017-02-12T05:34:01.049Z,0
2017-02-12T05:35:01.012Z,0
2017-02-12T05:36:01.002Z,0
2017-02-12T05:37:00.984Z,0
2017-02-12T05:38:00.983Z,0
2017-02-12T05:39:00.982Z,0
2017-02-12T05:40:00.934Z,0
2017-02-12T05:41:00.923Z,0
2017-02-12T05:42:00.911Z,0
2017-02-12T05:43:00.878Z,0
2017-02-12T05:44:00.872Z,0
2017-02-12T05:45:00.847Z,0
2017-02-12T05:46:00.859Z,0
2017-02-12T05:47:00.804Z,0
2017-02-12T05:48:00.829Z,0
2017-02-12T05:49:00.376Z,0
2017-02-12T05:50:00.808Z,0
2017-02-12T05:51:00.761Z,0
2017-02-12T05:52:00.745Z,0
2017-02-12T05:53:00.722Z,0
2017-02-12T05:54:00.689Z,0
2017-02-12T05:55:00.693Z,0
2017-02-12T05:56:00.659Z,0
2017-02-12T05:57:00.688Z,0
2017-02-12T05:58:00.646Z,0
2017-02-12T05:59:00.617Z,0
2017-02-12T06:00:00.596Z,0
2017-02-12T06:01:00.557Z,0
2017-02-12T06:02:00.581Z,0
2017-02-12T06:03:00.551Z,0
2017-02-12T06:04:00.555Z,0
2017-02-12T06:05:00.515Z,0
2017-02-12T06:06:00.508Z,0
2017-02-12T06:07:00.085Z,0
2017-02-12T06:08:00.454Z,0
2017-02-12T06:09:00.039Z,0
2017-02-12T06:10:00.445Z,0
2017-02-12T06:11:00.426Z,0
2017-02-12T06:11:59.997Z,0
2017-02-12T06:13:00.379Z,0
2017-02-12T06:14:00.358Z,0
2017-02-12T06:15:00.364Z,0
2017-02-12T06:16:00.348Z,0
2017-02-12T06:17:00.303Z,0
2017-02-12T06:18:00.321Z,0
2017-02-12T06:19:00.285Z,0
2017-02-12T06:20:00.291Z,0
2017-02-12T06:21:00.255Z,0
2017-02-12T06:22:00.256Z,0
2017-02-12T06:23:00.205Z,0
2017-02-12T06:24:00.212Z,0
2017-02-12T06:25:00.178Z,0
2017-02-12T06:26:00.196Z,0
2017-02-12T06:27:00.163Z,0
2017-02-12T06:28:00.137Z,0
2017-02-12T06:29:00.110Z,0
2017-02-12T06:30:00.089Z,0
2017-02-12T06:31:00.085Z,0
2017-02-12T06:32:00.062Z,0
2017-02-12T06:32:59.676Z,0
2017-02-12T06:34:00.015Z,5
2017-02-12T06:35:00.023Z,5
2017-02-12T06:35:59.992Z,5
2017-02-12T06:36:59.605Z,5
2017-02-12T06:37:59.969Z,5
2017-02-12T06:38:59.967Z,5
2017-02-12T06:39:59.936Z,5
2017-02-12T06:40:59.930Z,5
2017-02-12T06:41:59.869Z,5
2017-02-12T06:42:59.898Z,5
2017-02-12T06:43:59.869Z,5
2017-02-12T06:44:59.852Z,5
2017-02-12T06:45:59.818Z,5
2017-02-12T06:46:59.828Z,5
2017-02-12T06:47:59.807Z,10
2017-02-12T06:48:59.804Z,10
2017-02-12T06:49:59.756Z,10
2017-02-12T06:50:59.752Z,10
2017-02-12T06:51:59.734Z,10
2017-02-12T06:52:59.738Z,10
2017-02-12T06:53:59.740Z,10
2017-02-12T06:54:59.949Z,15
2017-02-12T06:55:59.659Z,15
2017-02-12T06:56:59.658Z,15
2017-02-12T06:57:59.625Z,15
2017-02-12T06:58:59.619Z,15
2017-02-12T06:59:59.599Z,15
2017-02-12T07:00:59.590Z,15
2017-02-12T07:01:59.581Z,15
2017-02-12T07:02:59.540Z,20
2017-02-12T07:03:59.534Z,20
2017-02-12T07:04:59.496Z,20
2017-02-12T07:05:59.511Z,20
2017-02-12T07:06:59.468Z,20
2017-02-12T07:07:59.075Z,20
2017-02-12T07:08:59.447Z,25
2017-02-12T07:09:59.421Z,25
2017-02-12T07:10:59.432Z,25
2017-02-12T07:11:59.410Z,25
2017-02-12T07:12:59.400Z,25
2017-02-12T07:13:59.344Z,25
2017-02-12T07:14:59.353Z,30
2017-02-12T07:15:58.947Z,30
2017-02-12T07:16:59.326Z,30
2017-02-12T07:17:59.318Z,30
2017-02-12T07:18:59.275Z,35
2017-02-12T07:19:59.273Z,35
2017-02-12T07:20:59.262Z,35
2017-02-12T07:21:59.223Z,35
2017-02-12T07:22:59.218Z,35
2017-02-12T07:23:59.178Z,40
2017-02-12T07:24:59.195Z,40
2017-02-12T07:25:59.152Z,45
2017-02-12T07:26:59.168Z,45
2017-02-12T07:27:59.137Z,45
2017-02-12T07:28:59.140Z,45
2017-02-12T07:29:59.093Z,45
2017-02-12T07:30:59.079Z,50
2017-02-12T07:31:59.082Z,50
2017-02-12T07:32:59.054Z,50
2017-02-12T07:33:59.028Z,50
2017-02-12T07:34:59.023Z,55
2017-02-12T07:35:59.014Z,55
2017-02-12T07:36:58.997Z,55
2017-02-12T07:37:58.964Z,60
2017-02-12T07:38:58.969Z,60
2017-02-12T07:39:58.921Z,60
2017-02-12T07:40:58.941Z,60
2017-02-12T07:41:58.897Z,65
2017-02-12T07:42:58.900Z,65
2017-02-12T07:43:58.925Z,65
2017-02-12T07:44:58.858Z,65
2017-02-12T07:45:58.837Z,65
2017-02-12T07:46:58.827Z,65
2017-02-12T07:47:58.813Z,65
2017-02-12T07:48:58.807Z,65
2017-02-12T07:49:58.787Z,65
2017-02-12T07:50:58.756Z,70
2017-02-12T07:51:58.732Z,70
2017-02-12T07:52:58.705Z,70
2017-02-12T07:53:58.733Z,70
2017-02-12T07:54:58.695Z,70
2017-02-12T07:55:58.709Z,70
2017-02-12T07:56:58.668Z,70
2017-02-12T07:57:58.669Z,75
2017-02-12T07:58:58.635Z,75
2017-02-12T07:59:58.606Z,75
2017-02-12T08:00:58.600Z,75
2017-02-12T08:01:58.567Z,75
2017-02-12T08:02:58.559Z,80
2017-02-12T08:03:58.547Z,80
2017-02-12T08:04:58.531Z,80
2017-02-12T08:05:58.517Z,85
2017-02-12T08:06:58.505Z,85
2017-02-12T08:07:58.491Z,85
2017-02-12T08:08:58.446Z,85
2017-02-12T08:09:58.486Z,85
2017-02-12T08:10:58.420Z,90
2017-02-12T08:11:58.424Z,90
2017-02-12T08:12:58.394Z,90
2017-02-12T08:13:58.396Z,90
2017-02-12T08:14:58.357Z,90
2017-02-12T08:15:58.345Z,95
2017-02-12T08:16:58.336Z,95
2017-02-12T08:17:58.362Z,100
2017-02-12T08:18:57.933Z,100
2017-02-12T08:19:58.294Z,100
2017-02-12T08:20:58.273Z,100
2017-02-12T08:21:58.249Z,100
2017-02-12T08:22:58.252Z,105
2017-02-12T08:23:58.230Z,105
2017-02-12T08:24:58.209Z,105
2017-02-12T08:25:58.197Z,105
2017-02-12T08:26:58.189Z,110
2017-02-12T08:27:58.172Z,110
2017-02-12T08:28:58.137Z,115
2017-02-12T08:29:58.146Z,115
2017-02-12T08:30:58.102Z,120
2017-02-12T08:31:58.104Z,120
2017-02-12T08:32:58.073Z,120
2017-02-12T08:33:58.088Z,120
2017-02-12T08:34:58.066Z,125
2017-02-12T08:35:58.038Z,125
2017-02-12T08:36:58.018Z,125
2017-02-12T08:37:57.975Z,125
2017-02-12T08:38:57.993Z,125
2017-02-12T08:39:57.977Z,130
2017-02-12T08:40:57.963Z,130
2017-02-12T08:41:57.962Z,130
2017-02-12T08:42:57.920Z,135
2017-02-12T08:43:57.908Z,140
2017-02-12T08:44:57.922Z,140
2017-02-12T08:45:57.877Z,145
2017-02-12T08:46:57.869Z,145
2017-02-12T08:47:57.840Z,145
2017-02-12T08:48:57.831Z,150
2017-02-12T08:49:57.792Z,150
2017-02-12T08:50:57.804Z,150
2017-02-12T08:51:57.787Z,150
2017-02-12T08:52:57.752Z,155
2017-02-12T08:53:57.735Z,160
2017-02-12T08:54:57.737Z,160
2017-02-12T08:55:57.724Z,165
2017-02-12T08:56:57.713Z,165
2017-02-12T08:57:57.698Z,165
2017-02-12T08:58:57.682Z,165
2017-02-12T08:59:57.647Z,165
2017-02-12T09:00:57.645Z,170
2017-02-12T09:01:57.606Z,170
2017-02-12T09:02:57.645Z,170
2017-02-12T09:03:57.587Z,175
2017-02-12T09:04:57.194Z,175
2017-02-12T09:05:57.552Z,180
2017-02-12T09:06:57.548Z,180
2017-02-12T09:07:57.537Z,180
2017-02-12T09:08:57.525Z,180
2017-02-12T09:09:57.560Z,180
2017-02-12T09:10:57.474Z,180
2017-02-12T09:11:57.463Z,180
2017-02-12T09:12:57.444Z,180
2017-02-12T09:13:57.452Z,180
2017-02-12T09:14:57.467Z,190
2017-02-12T09:15:57.397Z,185
2017-02-12T09:16:57.415Z,190
2017-02-12T09:17:57.417Z,195
2017-02-12T09:18:57.385Z,195
2017-02-12T09:19:57.392Z,200
2017-02-12T09:20:57.336Z,200
2017-02-12T09:21:57.313Z,205
2017-02-12T09:22:57.301Z,210
2017-02-12T09:23:57.275Z,210
2017-02-12T09:24:57.282Z,210
2017-02-12T09:25:57.272Z,215
2017-02-12T09:26:57.231Z,215
2017-02-12T09:27:57.226Z,215
2017-02-12T09:28:57.195Z,220
2017-02-12T09:29:57.246Z,225
2017-02-12T09:30:57.183Z,225
2017-02-12T09:31:57.191Z,230
2017-02-12T09:32:57.131Z,230
2017-02-12T09:33:57.159Z,235
2017-02-12T09:34:57.105Z,240
2017-02-12T09:35:57.103Z,240
2017-02-12T09:36:57.078Z,240
2017-02-12T09:37:57.089Z,245
2017-02-12T09:38:57.064Z,245
2017-02-12T09:39:57.058Z,240
2017-02-12T09:40:57.024Z,240
2017-02-12T09:41:57.026Z,240
2017-02-12T09:42:56.988Z,245
2017-02-12T09:43:56.999Z,250
2017-02-12T09:44:56.949Z,255
2017-02-12T09:45:56.972Z,260
2017-02-12T09:46:56.939Z,265
2017-02-12T09:47:56.950Z,265
2017-02-12T09:48:56.901Z,270
2017-02-12T09:49:56.909Z,270
2017-02-12T09:50:56.881Z,270
2017-02-12T09:51:56.877Z,270
2017-02-12T09:52:56.859Z,275
2017-02-12T09:53:56.855Z,280
2017-02-12T09:54:56.828Z,285
2017-02-12T09:55:56.823Z,285
2017-02-12T09:56:56.807Z,285
2017-02-12T09:57:56.781Z,285
2017-02-12T09:58:56.771Z,285
2017-02-12T09:59:56.768Z,285
2017-02-12T10:00:56.755Z,285
2017-02-12T10:01:56.716Z,285
2017-02-12T10:02:56.720Z,285
2017-02-12T10:03:56.686Z,285
2017-02-12T10:04:56.709Z,290
2017-02-12T10:05:56.660Z,295
2017-02-12T10:06:56.279Z,295
2017-02-12T10:07:56.640Z,295
2017-02-12T10:08:56.619Z,300
2017-02-12T10:09:56.631Z,310
2017-02-12T10:10:56.615Z,315
2017-02-12T10:11:56.585Z,320
2017-02-12T10:12:56.568Z,325
2017-02-12T10:13:56.541Z,325
2017-02-12T10:14:56.563Z,325
2017-02-12T10:15:56.535Z,325
2017-02-12T10:16:56.536Z,325
2017-02-12T10:17:56.511Z,330
2017-02-12T10:18:56.108Z,325
2017-02-12T10:19:56.485Z,330
2017-02-12T10:20:56.464Z,330
2017-02-12T10:21:56.448Z,330
2017-02-12T10:22:56.455Z,325
2017-02-12T10:23:56.421Z,325
2017-02-12T10:24:56.419Z,320
2017-02-12T10:25:56.391Z,315
2017-02-12T10:26:56.365Z,315
2017-02-12T10:27:56.375Z,315
2017-02-12T10:28:56.364Z,315
2017-02-12T10:29:56.350Z,310
2017-02-12T10:30:56.328Z,305
2017-02-12T10:31:56.316Z,305
2017-02-12T10:32:56.298Z,300
2017-02-12T10:33:56.278Z,300
2017-02-12T10:34:56.285Z,305
2017-02-12T10:35:56.251Z,310
2017-02-12T10:36:56.268Z,315
2017-02-12T10:37:56.219Z,320
2017-02-12T10:38:56.230Z,325
2017-02-12T10:39:56.204Z,325
2017-02-12T10:40:56.203Z,325
2017-02-12T10:41:56.181Z,325
2017-02-12T10:42:56.156Z,325
2017-02-12T10:43:56.159Z,320
2017-02-12T10:44:56.206Z,320
2017-02-12T10:45:56.118Z,325
2017-02-12T10:46:56.126Z,320
2017-02-12T10:47:56.105Z,315
2017-02-12T10:48:56.105Z,315
2017-02-12T10:49:56.059Z,310
2017-02-12T10:50:56.069Z,310
2017-02-12T10:51:56.040Z,310
2017-02-12T10:52:56.037Z,310
2017-02-12T10:53:55.993Z,315
2017-02-12T10:54:55.627Z,320
2017-02-12T10:55:55.997Z,325
2017-02-12T10:56:55.982Z,325
2017-02-12T10:57:55.947Z,330
2017-02-12T10:58:55.959Z,330
2017-02-12T10:59:55.946Z,330
2017-02-12T11:00:55.921Z,330
2017-02-12T11:01:55.895Z,330
2017-02-12T11:02:55.944Z,330
2017-02-12T11:03:55.879Z,330
2017-02-12T11:04:55.899Z,330
2017-02-12T11:05:55.844Z,325
2017-02-12T11:06:55.846Z,325
2017-02-12T11:07:55.809Z,320
2017-02-12T11:08:55.833Z,330
2017-02-12T11:09:55.845Z,335
2017-02-12T11:10:55.808Z,335
2017-02-12T11:11:55.783Z,335
2017-02-12T11:12:55.767Z,335
2017-02-12T11:13:55.738Z,335
2017-02-12T11:14:55.727Z,335
2017-02-12T11:15:55.726Z,335
2017-02-12T11:16:55.712Z,335
2017-02-12T11:17:55.708Z,340
2017-02-12T11:18:55.685Z,340
2017-02-12T11:19:55.662Z,335
2017-02-12T11:20:55.653Z,335
2017-02-12T11:21:55.657Z,340
2017-02-12T11:22:55.635Z,340
2017-02-12T11:23:55.604Z,340
2017-02-12T11:24:55.607Z,335
2017-02-12T11:25:55.578Z,335
2017-02-12T11:26:55.635Z,335
2017-02-12T11:27:55.552Z,330
2017-02-12T11:28:55.592Z,335
2017-02-12T11:29:55.517Z,335
2017-02-12T11:30:55.506Z,330
2017-02-12T11:31:55.517Z,330
2017-02-12T11:32:55.509Z,335
2017-02-12T11:33:55.493Z,335
2017-02-12T11:34:55.467Z,340
2017-02-12T11:35:55.457Z,340
2017-02-12T11:36:55.474Z,340
2017-02-12T11:37:55.427Z,335
2017-02-12T11:38:55.419Z,335
2017-02-12T11:39:55.423Z,335
2017-02-12T11:40:55.382Z,335
2017-02-12T11:41:55.385Z,340
2017-02-12T11:42:55.338Z,345
2017-02-12T11:43:54.965Z,345
2017-02-12T11:44:55.368Z,345
2017-02-12T11:45:55.343Z,345
2017-02-12T11:46:55.315Z,340
2017-02-12T11:47:55.284Z,345
2017-02-12T11:48:55.263Z,335
2017-02-12T11:49:55.282Z,330
2017-02-12T11:50:55.247Z,325
2017-02-12T11:51:55.239Z,325
2017-02-12T11:52:54.837Z,320
2017-02-12T11:53:55.233Z,315
2017-02-12T11:54:55.193Z,310
2017-02-12T11:55:55.203Z,310
2017-02-12T11:56:54.784Z,305
2017-02-12T11:57:54.831Z,305
2017-02-12T11:58:54.758Z,305
2017-02-12T11:59:55.140Z,305
2017-02-12T12:00:54.708Z,305
2017-02-12T12:01:54.743Z,310
2017-02-12T12:02:55.105Z,310
2017-02-12T12:03:54.692Z,310
2017-02-12T12:04:54.681Z,310
2017-02-12T12:05:54.652Z,305
2017-02-12T12:06:54.669Z,310
2017-02-12T12:07:54.640Z,305
2017-02-12T12:08:54.638Z,310
2017-02-12T12:09:55.006Z,310
2017-02-12T12:10:54.615Z,315
2017-02-12T12:11:54.594Z,310
2017-02-12T12:12:55.007Z,310
2017-02-12T12:13:54.948Z,310
2017-02-12T12:14:54.939Z,310
2017-02-12T12:15:54.972Z,315
2017-02-12T12:16:54.921Z,310
2017-02-12T12:17:54.913Z,305
2017-02-12T12:18:54.890Z,300
2017-02-12T12:19:54.488Z,300
2017-02-12T12:20:54.865Z,300
2017-02-12T12:21:54.833Z,305
2017-02-12T12:22:54.836Z,305
2017-02-12T12:23:54.840Z,300
2017-02-12T12:24:54.842Z,300
2017-02-12T12:25:54.421Z,305
2017-02-12T12:26:54.796Z,300
2017-02-12T12:27:54.768Z,300
2017-02-12T12:28:54.750Z,300
2017-02-12T12:29:54.776Z,300
2017-02-12T12:30:54.717Z,300
2017-02-12T12:31:54.741Z,300
2017-02-12T12:32:54.700Z,295
2017-02-12T12:33:54.733Z,295
2017-02-12T12:34:54.701Z,295
2017-02-12T12:35:54.682Z,300
2017-02-12T12:36:54.653Z,295
2017-02-12T12:37:54.627Z,295
2017-02-12T12:38:54.639Z,300
2017-02-12T12:39:54.621Z,300
2017-02-12T12:40:54.587Z,295
2017-02-12T12:41:54.624Z,295
2017-02-12T12:42:54.574Z,300
2017-02-12T12:43:54.593Z,295
2017-02-12T12:44:54.552Z,295
2017-02-12T12:45:54.155Z,295
2017-02-12T12:46:54.508Z,295
2017-02-12T12:47:54.523Z,295
2017-02-12T12:48:54.497Z,295
2017-02-12T12:49:54.490Z,295
2017-02-12T12:50:54.473Z,290
2017-02-12T12:51:54.458Z,285
2017-02-12T12:52:54.447Z,285
2017-02-12T12:53:54.420Z,285
2017-02-12T12:54:54.431Z,290
2017-02-12T12:55:54.400Z,285
2017-02-12T12:56:54.422Z,280
2017-02-12T12:57:54.370Z,280
2017-02-12T12:58:54.378Z,280
2017-02-12T12:59:54.321Z,275
2017-02-12T13:00:54.348Z,275
2017-02-12T13:01:54.334Z,275
2017-02-12T13:02:54.331Z,275
2017-02-12T13:03:54.294Z,270
2017-02-12T13:04:54.291Z,270
2017-02-12T13:05:54.258Z,270
2017-02-12T13:06:54.565Z,265
2017-02-12T13:07:54.250Z,265
2017-02-12T13:08:54.236Z,265
2017-02-12T13:09:53.420Z,265
2017-02-12T13:10:54.215Z,265
2017-02-12T13:11:53.797Z,260
2017-02-12T13:12:54.203Z,260
2017-02-12T13:13:54.167Z,260
2017-02-12T13:14:54.153Z,260
2017-02-12T13:15:54.118Z,255
2017-02-12T13:16:53.747Z,255
2017-02-12T13:17:54.107Z,250
2017-02-12T13:18:54.132Z,250
2017-02-12T13:19:54.088Z,245
2017-02-12T13:20:54.136Z,245
2017-02-12T13:21:53.643Z,240
2017-02-12T13:22:54.046Z,240
2017-02-12T13:23:54.030Z,235
2017-02-12T13:24:54.026Z,235
2017-02-12T13:25:54.018Z,235
2017-02-12T13:26:53.976Z,230
2017-02-12T13:27:53.964Z,230
2017-02-12T13:28:53.949Z,230
2017-02-12T13:29:53.975Z,230
2017-02-12T13:30:53.931Z,225
2017-02-12T13:31:53.914Z,225
2017-02-12T13:32:53.923Z,225
2017-02-12T13:33:53.886Z,225
2017-02-12T13:34:53.897Z,220
2017-02-12T13:35:53.870Z,215
2017-02-12T13:36:53.860Z,215
2017-02-12T13:37:53.817Z,215
2017-02-12T13:38:53.824Z,215
2017-02-12T13:39:53.822Z,210
2017-02-12T13:40:53.821Z,205
2017-02-12T13:41:53.794Z,205
2017-02-12T13:42:53.778Z,200
2017-02-12T13:43:53.760Z,200
2017-02-12T13:44:53.729Z,205
2017-02-12T13:45:53.740Z,205
2017-02-12T13:46:53.709Z,205
2017-02-12T13:47:53.722Z,205
2017-02-12T13:48:53.678Z,205
2017-02-12T13:49:53.698Z,200
2017-02-12T13:50:53.657Z,195
2017-02-12T13:51:53.657Z,195
2017-02-12T13:52:53.623Z,195
2017-02-12T13:53:53.685Z,190
2017-02-12T13:54:53.619Z,190
2017-02-12T13:55:53.586Z,185
2017-02-12T13:56:53.874Z,185
2017-02-12T13:57:53.585Z,185
2017-02-12T13:58:53.562Z,185
2017-02-12T13:59:53.550Z,180
2017-02-12T14:00:53.535Z,180
2017-02-12T14:01:53.530Z,180
2017-02-12T14:02:53.498Z,180
2017-02-12T14:03:53.491Z,180
2017-02-12T14:04:53.465Z,180
2017-02-12T14:05:53.464Z,180
2017-02-12T14:06:53.430Z,175
2017-02-12T14:07:53.037Z,175
2017-02-12T14:08:53.417Z,175
2017-02-12T14:09:52.627Z,175
2017-02-12T14:10:53.374Z,175
2017-02-12T14:11:53.366Z,175
2017-02-12T14:12:52.973Z,175
2017-02-12T14:13:53.359Z,175
2017-02-12T14:14:53.318Z,170
2017-02-12T14:15:53.315Z,170
2017-02-12T14:16:53.343Z,170